Time;durP1;ratioP1;P1;durP2;ratioP2;P2;SDS_P1;SDS_P2;PMS_P1;PMS_P2;Temp;Humidity;BMP_temperature;BMP_pressure;BME280_temperature;BME280_humidity;BME280_pressure;Samples;Min_cycle;Max_cycle;Signal;HPM_P1;HPM_P2
2022/03/26 00:01:30;;;;;;;32.10;18.38;;;5.70;99.90;;;;;;5030699;28;20124;-75
2022/03/26 00:03:55;;;;;;;32.55;19.20;;;5.60;99.90;;;;;;5030604;28;20474;-75
2022/03/26 00:06:21;;;;;;;36.33;21.08;;;5.60;99.90;;;;;;5030700;28;20048;-75
2022/03/26 00:08:49;;;;;;;36.85;21.17;;;5.60;99.90;;;;;;5031238;28;20466;-75
2022/03/26 00:11:15;;;;;;;39.63;21.50;;;5.60;99.90;;;;;;5031443;28;20092;-76
2022/03/26 00:13:40;;;;;;;36.78;21.05;;;5.70;99.90;;;;;;5029522;28;20401;-76
2022/03/26 00:16:06;;;;;;;25.10;13.95;;;5.70;99.90;;;;;;5030577;28;20041;-75
2022/03/26 00:18:31;;;;;;;22.45;13.07;;;5.80;99.90;;;;;;5030528;28;20037;-75
2022/03/26 00:20:57;;;;;;;23.05;12.55;;;5.70;99.90;;;;;;5030487;28;20065;-75
2022/03/26 00:23:22;;;;;;;25.42;13.55;;;5.70;99.90;;;;;;5025566;28;20037;-75
2022/03/26 00:25:48;;;;;;;24.17;13.13;;;5.70;99.90;;;;;;5022277;28;20049;-75
2022/03/26 00:28:14;;;;;;;23.50;13.48;;;5.70;99.90;;;;;;5034519;28;20045;-75
2022/03/26 00:30:39;;;;;;;23.10;12.88;;;5.70;99.90;;;;;;5050831;28;20485;-76
2022/03/26 00:33:05;;;;;;;23.17;13.50;;;5.70;99.90;;;;;;5030983;28;20414;-75
2022/03/26 00:35:31;;;;;;;21.17;12.85;;;5.80;99.90;;;;;;5015217;28;20100;-75
2022/03/26 00:37:56;;;;;;;23.90;13.93;;;5.70;99.90;;;;;;5002448;28;20079;-75
2022/03/26 00:40:22;;;;;;;23.73;13.25;;;5.70;99.90;;;;;;5033914;28;20037;-75
2022/03/26 00:42:48;;;;;;;23.38;12.48;;;5.60;99.90;;;;;;5017238;28;20040;-75
2022/03/26 00:45:13;;;;;;;24.42;13.88;;;5.50;99.90;;;;;;5034254;28;20041;-75
2022/03/26 00:47:39;;;;;;;26.95;14.02;;;5.50;99.90;;;;;;5017017;28;20498;-75
2022/03/26 00:50:05;;;;;;;24.30;14.27;;;5.50;99.90;;;;;;5033674;28;20410;-75
2022/03/26 00:52:31;;;;;;;23.85;14.48;;;5.40;99.90;;;;;;5018402;28;20107;-75
2022/03/26 00:54:56;;;;;;;28.60;15.55;;;5.30;99.90;;;;;;5017085;28;20045;-75
2022/03/26 00:57:22;;;;;;;29.88;17.73;;;5.20;99.90;;;;;;5051222;28;20040;-75
2022/03/26 00:59:47;;;;;;;29.23;17.08;;;5.10;99.90;;;;;;5014268;28;20046;-75
2022/03/26 01:02:13;;;;;;;26.70;14.98;;;5.00;99.90;;;;;;5014606;28;20041;-75
2022/03/26 01:04:39;;;;;;;29.33;17.25;;;5.00;99.90;;;;;;5013203;28;20048;-75
2022/03/26 01:07:06;;;;;;;31.55;17.45;;;5.00;99.90;;;;;;5017982;28;20041;-75
2022/03/26 01:09:31;;;;;;;34.83;19.52;;;5.10;99.90;;;;;;5013088;28;20042;-75
2022/03/26 01:11:57;;;;;;;28.20;16.55;;;5.20;99.90;;;;;;5030182;28;20514;-75
2022/03/26 01:14:23;;;;;;;25.77;14.20;;;5.20;99.90;;;;;;5017751;28;20088;-75
2022/03/26 01:16:49;;;;;;;22.88;12.57;;;5.20;99.90;;;;;;5026160;28;20443;-75
2022/03/26 01:19:15;;;;;;;21.45;11.45;;;5.30;99.90;;;;;;5021942;28;20037;-75
2022/03/26 01:21:41;;;;;;;24.67;12.63;;;5.30;99.90;;;;;;5017667;28;20087;-75
2022/03/26 01:24:06;;;;;;;26.10;14.07;;;5.40;99.90;;;;;;5032929;28;20045;-75
2022/03/26 01:26:32;;;;;;;23.95;13.38;;;5.30;99.90;;;;;;5033123;28;20029;-76
2022/03/26 01:28:58;;;;;;;26.50;14.55;;;5.30;99.90;;;;;;5031962;28;20509;-75
2022/03/26 01:31:23;;;;;;;25.35;13.98;;;5.20;99.90;;;;;;5034234;28;20053;-75
2022/03/26 01:33:50;;;;;;;27.00;13.90;;;5.20;99.90;;;;;;5032910;28;20765;-76
2022/03/26 01:36:16;;;;;;;26.02;14.15;;;5.10;99.90;;;;;;5050459;28;20045;-75
2022/03/26 01:38:42;;;;;;;19.00;11.13;;;5.10;99.90;;;;;;5032807;28;20041;-75
2022/03/26 01:41:08;;;;;;;20.40;10.98;;;5.00;99.90;;;;;;5017614;28;20026;-75
2022/03/26 01:43:34;;;;;;;24.98;10.88;;;5.10;99.90;;;;;;5032590;28;20037;-75
2022/03/26 01:46:00;;;;;;;24.15;12.48;;;5.10;99.90;;;;;;5033953;28;20124;-75
2022/03/26 01:48:25;;;;;;;24.13;13.05;;;5.00;99.90;;;;;;5032160;28;20054;-75
2022/03/26 01:50:51;;;;;;;23.88;13.88;;;4.90;99.90;;;;;;5013407;28;20048;-75
2022/03/26 01:53:17;;;;;;;24.80;13.90;;;4.90;99.90;;;;;;5023459;28;20096;-75
2022/03/26 01:55:43;;;;;;;25.98;15.00;;;4.90;99.90;;;;;;5016092;28;20422;-75
2022/03/26 01:58:09;;;;;;;22.63;13.02;;;4.70;99.90;;;;;;5031514;28;20060;-75
2022/03/26 02:00:35;;;;;;;26.42;15.35;;;4.70;99.90;;;;;;5032461;28;20037;-75
2022/03/26 02:03:02;;;;;;;27.30;14.98;;;4.80;99.90;;;;;;5032319;28;20132;-75
2022/03/26 02:05:28;;;;;;;25.10;14.88;;;4.90;99.90;;;;;;5050158;28;20052;-75
2022/03/26 02:07:55;;;;;;;24.88;14.40;;;4.90;99.90;;;;;;5049223;28;20437;-75
2022/03/26 02:10:21;;;;;;;27.30;14.90;;;4.90;99.90;;;;;;5048032;28;20037;-75
2022/03/26 02:12:47;;;;;;;28.63;16.23;;;4.90;99.90;;;;;;5049831;28;20044;-75
2022/03/26 02:15:13;;;;;;;31.40;17.35;;;4.90;99.90;;;;;;5014384;28;20128;-75
2022/03/26 02:17:39;;;;;;;30.95;18.27;;;4.90;99.90;;;;;;5033140;28;20124;-75
2022/03/26 02:20:10;;;;;;;30.02;17.35;;;4.80;99.90;;;;;;5032080;28;20562;-75
2022/03/26 02:22:37;;;;;;;32.87;18.77;;;4.80;99.90;;;;;;5016648;28;20103;-75
2022/03/26 02:25:05;;;;;;;34.10;19.52;;;4.80;99.90;;;;;;5014916;28;20898;-76
2022/03/26 02:27:33;;;;;;;34.10;19.77;;;4.80;99.90;;;;;;5049555;28;20041;-75
2022/03/26 02:29:59;;;;;;;36.58;20.42;;;4.70;99.90;;;;;;5031799;28;20079;-76
2022/03/26 02:32:27;;;;;;;35.85;19.45;;;4.60;99.90;;;;;;5049462;28;20042;-75
2022/03/26 02:34:53;;;;;;;40.08;21.25;;;4.60;99.90;;;;;;5048408;28;20045;-75
2022/03/26 02:37:19;;;;;;;33.22;20.08;;;4.60;99.90;;;;;;5048213;28;20118;-75
2022/03/26 02:39:45;;;;;;;38.65;21.42;;;4.60;99.90;;;;;;5029834;28;20490;-75
2022/03/26 02:42:12;;;;;;;36.88;21.30;;;4.60;99.90;;;;;;5032300;28;20049;-75
2022/03/26 02:44:38;;;;;;;39.63;21.55;;;4.60;99.90;;;;;;5029868;28;20092;-75
2022/03/26 02:47:04;;;;;;;42.42;21.40;;;4.50;99.90;;;;;;5032513;28;20453;-75
2022/03/26 02:49:29;;;;;;;41.13;22.70;;;4.40;99.90;;;;;;5030964;28;20120;-75
2022/03/26 02:51:55;;;;;;;40.90;23.35;;;4.40;99.90;;;;;;5032718;28;20180;-75
2022/03/26 02:54:20;;;;;;;41.30;22.38;;;4.40;99.90;;;;;;5031311;28;20095;-75
2022/03/26 02:56:50;;;;;;;44.17;23.90;;;4.60;99.90;;;;;;5015614;28;20029;-75
2022/03/26 02:59:17;;;;;;;40.63;22.30;;;4.60;99.90;;;;;;5047904;28;20048;-76
2022/03/26 03:01:43;;;;;;;45.45;24.55;;;4.50;99.90;;;;;;5016048;28;20033;-75
2022/03/26 03:04:09;;;;;;;47.10;25.42;;;4.50;99.90;;;;;;5030008;28;20038;-76
2022/03/26 03:06:34;;;;;;;49.35;27.15;;;4.40;99.90;;;;;;5015791;28;20047;-75
2022/03/26 03:09:04;;;;;;;52.53;29.33;;;4.30;99.90;;;;;;5031159;28;20453;-75
2022/03/26 03:11:30;;;;;;;47.45;26.80;;;4.20;99.90;;;;;;5016011;28;20081;-75
2022/03/26 03:13:56;;;;;;;43.63;24.77;;;4.10;99.90;;;;;;5029027;28;20076;-75
2022/03/26 03:16:22;;;;;;;49.90;26.45;;;4.10;99.90;;;;;;5011292;28;20049;-76
2022/03/26 03:18:47;;;;;;;44.08;24.10;;;4.10;99.90;;;;;;5019571;28;20091;-76
2022/03/26 03:21:13;;;;;;;43.47;23.80;;;4.10;99.90;;;;;;5032071;28;20037;-75
2022/03/26 03:23:38;;;;;;;41.67;22.85;;;4.20;99.90;;;;;;5014673;28;20116;-75
2022/03/26 03:26:04;;;;;;;41.53;21.90;;;4.30;99.90;;;;;;5015564;28;20042;-75
2022/03/26 03:28:30;;;;;;;38.67;21.55;;;4.30;99.90;;;;;;5031197;28;20030;-75
2022/03/26 03:30:55;;;;;;;37.20;21.08;;;4.40;99.90;;;;;;5015449;28;20044;-75
2022/03/26 03:33:21;;;;;;;37.63;21.42;;;4.40;99.90;;;;;;5014770;28;20033;-75
2022/03/26 03:35:47;;;;;;;40.85;22.48;;;4.40;99.90;;;;;;5048374;28;20448;-75
2022/03/26 03:38:13;;;;;;;44.38;23.70;;;4.40;99.90;;;;;;5014591;28;20045;-76
2022/03/26 03:40:38;;;;;;;37.35;21.38;;;4.40;99.90;;;;;;5047456;28;20116;-75
2022/03/26 03:43:05;;;;;;;39.17;20.90;;;4.40;99.90;;;;;;5031039;28;20041;-75
2022/03/26 03:45:31;;;;;;;38.60;21.45;;;4.40;99.90;;;;;;5014125;28;20071;-76
2022/03/26 03:47:57;;;;;;;39.97;21.13;;;4.50;99.90;;;;;;5047454;28;20448;-75
2022/03/26 03:50:22;;;;;;;39.70;22.50;;;4.50;99.90;;;;;;5031374;28;20041;-75
2022/03/26 03:52:48;;;;;;;44.72;25.00;;;4.40;99.90;;;;;;5013956;28;20502;-75
2022/03/26 03:55:13;;;;;;;45.75;25.77;;;4.30;99.90;;;;;;5030721;28;20041;-75
2022/03/26 03:57:41;;;;;;;48.17;26.35;;;4.20;99.90;;;;;;5031603;28;20124;-75
2022/03/26 04:00:11;;;;;;;45.35;25.85;;;4.20;99.90;;;;;;5013422;28;20038;-76
2022/03/26 04:02:37;;;;;;;48.35;26.90;;;4.10;99.90;;;;;;5035441;28;20474;-75
2022/03/26 04:05:02;;;;;;;48.20;26.90;;;4.10;99.90;;;;;;5034614;28;20072;-75
2022/03/26 04:07:28;;;;;;;52.17;28.85;;;4.00;99.90;;;;;;5035583;28;20387;-75
2022/03/26 04:09:54;;;;;;;50.13;29.23;;;3.90;99.90;;;;;;5034468;28;20052;-76
2022/03/26 04:12:19;;;;;;;49.45;27.90;;;3.90;99.90;;;;;;5019032;28;20473;-75
2022/03/26 04:14:45;;;;;;;51.20;28.42;;;3.90;99.90;;;;;;5018225;28;20565;-75
2022/03/26 04:17:12;;;;;;;55.35;31.08;;;3.90;99.90;;;;;;5018946;28;20069;-75
2022/03/26 04:19:38;;;;;;;60.72;32.55;;;3.70;99.90;;;;;;5034267;28;20490;-75
2022/03/26 04:22:06;;;;;;;62.10;33.15;;;3.40;99.90;;;;;;5018054;28;20113;-76
2022/03/26 04:24:31;;;;;;;55.58;30.20;;;3.30;99.90;;;;;;5034206;28;20080;-76
2022/03/26 04:26:57;;;;;;;60.90;32.28;;;3.20;99.90;;;;;;5018787;28;20065;-76
2022/03/26 04:29:22;;;;;;;57.83;30.63;;;3.20;99.90;;;;;;5017831;28;20473;-75
2022/03/26 04:31:48;;;;;;;57.10;32.75;;;3.10;99.90;;;;;;5018607;28;20402;-76
2022/03/26 04:34:13;;;;;;;60.10;32.28;;;3.10;99.90;;;;;;5017797;28;20482;-76
2022/03/26 04:36:39;;;;;;;66.38;34.55;;;3.00;99.90;;;;;;5018406;28;20102;-76
2022/03/26 04:39:05;;;;;;;67.78;35.97;;;3.00;99.90;;;;;;5017914;28;20044;-76
2022/03/26 04:41:30;;;;;;;63.63;32.63;;;3.10;99.90;;;;;;5032360;28;20038;-76
2022/03/26 04:43:56;;;;;;;57.20;30.80;;;3.20;99.90;;;;;;5033762;28;20041;-76
2022/03/26 04:46:22;;;;;;;50.05;27.35;;;3.40;99.90;;;;;;5017487;28;20045;-75
2022/03/26 04:48:47;;;;;;;50.95;26.80;;;3.40;99.90;;;;;;5034720;28;20486;-76
2022/03/26 04:51:13;;;;;;;53.30;28.48;;;3.50;99.90;;;;;;5018286;28;20041;-76
2022/03/26 04:53:39;;;;;;;58.50;29.75;;;3.50;99.90;;;;;;5021119;28;20048;-76
2022/03/26 04:56:05;;;;;;;57.92;29.08;;;3.30;99.90;;;;;;5031911;28;20048;-75
2022/03/26 04:58:31;;;;;;;56.85;29.52;;;3.40;99.90;;;;;;5050129;28;20721;-75
2022/03/26 05:00:56;;;;;;;62.50;31.70;;;3.40;99.90;;;;;;5018016;28;20033;-75
2022/03/26 05:03:22;;;;;;;58.58;30.20;;;3.50;99.90;;;;;;5030932;28;20092;-75
2022/03/26 05:05:48;;;;;;;63.28;30.30;;;3.50;99.90;;;;;;5034354;28;20038;-75
2022/03/26 05:08:15;;;;;;;57.03;29.75;;;3.40;99.90;;;;;;5032428;28;20410;-76
2022/03/26 05:10:40;;;;;;;63.80;33.80;;;3.30;99.90;;;;;;5051225;28;20064;-75
2022/03/26 05:13:06;;;;;;;62.58;31.73;;;3.20;99.90;;;;;;5032832;28;20413;-75
2022/03/26 05:15:32;;;;;;;62.95;33.58;;;3.00;99.90;;;;;;5012019;28;20038;-76
2022/03/26 05:17:58;;;;;;;63.90;32.17;;;3.00;99.90;;;;;;5026775;28;20041;-76
2022/03/26 05:20:25;;;;;;;59.42;30.55;;;3.00;99.90;;;;;;5025790;28;20037;-76
2022/03/26 05:22:52;;;;;;;55.92;30.55;;;3.00;99.90;;;;;;5033250;28;20057;-76
2022/03/26 05:25:18;;;;;;;61.75;32.25;;;3.00;99.90;;;;;;5028514;28;20042;-75
2022/03/26 05:27:49;;;;;;;61.88;31.50;;;3.00;99.90;;;;;;5020802;28;20092;-75
2022/03/26 05:30:16;;;;;;;63.58;30.55;;;3.00;99.90;;;;;;5016271;28;20080;-76
2022/03/26 05:32:42;;;;;;;59.75;31.30;;;3.00;99.90;;;;;;5017367;28;20046;-76
2022/03/26 05:35:14;;;;;;;55.20;29.92;;;3.10;99.90;;;;;;5030967;28;20119;-76
2022/03/26 05:37:50;;;;;;;55.40;28.55;;;3.10;99.90;;;;;;5032632;28;20068;-76
2022/03/26 05:40:18;;;;;;;60.42;30.95;;;3.00;99.90;;;;;;5031133;28;20037;-76
2022/03/26 05:42:45;;;;;;;59.60;31.60;;;3.10;99.90;;;;;;5033357;28;20593;-76
2022/03/26 05:45:11;;;;;;;63.60;31.33;;;3.10;99.90;;;;;;5030563;28;20038;-75
2022/03/26 05:47:40;;;;;;;51.25;28.35;;;3.10;99.90;;;;;;5032743;28;20091;-76
2022/03/26 05:50:09;;;;;;;56.33;30.30;;;3.10;99.90;;;;;;5032875;28;20080;-75
2022/03/26 05:52:34;;;;;;;62.55;31.40;;;3.10;99.90;;;;;;5033605;28;20508;-76
2022/03/26 05:55:00;;;;;;;59.50;32.50;;;3.10;99.90;;;;;;5032735;28;20041;-76
2022/03/26 05:57:26;;;;;;;57.08;30.27;;;3.00;99.90;;;;;;5033492;28;20049;-75
2022/03/26 05:59:51;;;;;;;60.05;30.33;;;3.10;99.90;;;;;;5032078;28;20379;-76
2022/03/26 06:02:17;;;;;;;58.20;31.63;;;3.20;99.90;;;;;;5029597;28;20478;-76
2022/03/26 06:04:43;;;;;;;57.70;29.35;;;3.30;99.90;;;;;;5032550;28;20478;-76
2022/03/26 06:07:09;;;;;;;50.75;27.45;;;3.40;99.90;;;;;;5011210;28;20034;-76
2022/03/26 06:09:38;;;;;;;51.20;27.35;;;3.50;99.90;;;;;;5027659;28;20123;-76
2022/03/26 06:12:04;;;;;;;46.05;25.30;;;3.40;99.90;;;;;;5026910;28;20037;-76
2022/03/26 06:14:30;;;;;;;45.72;24.40;;;3.40;99.90;;;;;;5029717;28;20115;-76
2022/03/26 06:16:56;;;;;;;49.55;26.70;;;3.40;99.90;;;;;;5031014;28;20394;-76
2022/03/26 06:19:22;;;;;;;51.88;26.35;;;3.60;99.90;;;;;;5033167;28;20038;-76
2022/03/26 06:21:48;;;;;;;46.15;24.17;;;3.60;99.90;;;;;;5015737;28;20068;-76
2022/03/26 06:24:14;;;;;;;46.58;24.52;;;3.60;99.90;;;;;;5026684;28;20029;-76
2022/03/26 06:26:43;;;;;;;45.97;25.30;;;3.70;99.90;;;;;;5004636;28;20119;-76
2022/03/26 06:29:09;;;;;;;47.67;24.65;;;3.70;99.90;;;;;;5013207;28;20037;-76
2022/03/26 06:31:35;;;;;;;49.10;25.38;;;3.70;99.90;;;;;;5029991;28;20066;-76
2022/03/26 06:34:00;;;;;;;51.97;27.45;;;3.70;99.90;;;;;;5031729;28;20045;-76
2022/03/26 06:36:26;;;;;;;57.75;28.00;;;3.80;99.90;;;;;;5031446;28;20045;-76
2022/03/26 06:38:52;;;;;;;54.78;28.92;;;3.70;99.90;;;;;;5032949;28;20041;-76
2022/03/26 06:41:18;;;;;;;58.08;30.30;;;3.70;99.90;;;;;;5008131;28;20068;-76
2022/03/26 06:43:44;;;;;;;57.25;29.23;;;3.70;99.90;;;;;;5024862;28;20478;-76
2022/03/26 06:46:10;;;;;;;62.70;32.95;;;3.80;99.90;;;;;;5029759;28;20037;-76
2022/03/26 06:48:36;;;;;;;57.30;31.13;;;3.80;99.90;;;;;;5015313;28;20053;-76
2022/03/26 06:51:04;;;;;;;59.75;31.27;;;3.90;99.90;;;;;;5030486;28;20045;-76
2022/03/26 06:53:30;;;;;;;63.70;34.47;;;3.90;99.90;;;;;;5031274;28;20394;-76
2022/03/26 06:55:57;;;;;;;81.78;40.92;;;3.90;99.90;;;;;;5031083;28;20080;-76
2022/03/26 06:58:23;;;;;;;71.40;38.13;;;4.10;99.90;;;;;;5029382;28;20033;-76
2022/03/26 07:00:50;;;;;;;84.03;41.88;;;4.20;99.90;;;;;;5013319;28;20037;-76
2022/03/26 07:03:16;;;;;;;87.80;43.40;;;4.20;99.90;;;;;;5048072;28;20038;-76
2022/03/26 07:05:42;;;;;;;76.18;38.22;;;4.20;99.90;;;;;;5014041;28;20077;-76
2022/03/26 07:08:09;;;;;;;91.07;44.35;;;4.20;99.90;;;;;;5029254;28;20080;-76
2022/03/26 07:10:35;;;;;;;95.95;46.38;;;4.30;99.90;;;;;;5025812;28;20450;-76
2022/03/26 07:13:01;;;;;;;106.68;52.22;;;4.50;99.90;;;;;;5028624;28;20045;-76
2022/03/26 07:15:26;;;;;;;117.55;55.35;;;4.80;99.90;;;;;;5011636;28;20037;-76
2022/03/26 07:17:52;;;;;;;127.35;55.85;;;4.90;99.90;;;;;;5015096;28;20482;-76
2022/03/26 07:20:17;;;;;;;116.38;54.70;;;5.10;99.90;;;;;;5047976;28;20052;-76
2022/03/26 07:22:44;;;;;;;113.20;52.72;;;5.20;99.90;;;;;;5038843;28;20045;-76
2022/03/26 07:25:10;;;;;;;111.55;51.17;;;5.40;99.90;;;;;;5012269;28;20081;-76
2022/03/26 07:27:37;;;;;;;107.28;51.22;;;5.60;99.90;;;;;;5009007;28;20179;-76
2022/03/26 07:30:04;;;;;;;124.03;56.33;;;5.90;99.90;;;;;;5013083;28;20132;-76
2022/03/26 07:32:30;;;;;;;121.38;56.00;;;6.10;99.90;;;;;;5011729;28;20124;-76
2022/03/26 07:34:56;;;;;;;125.90;58.83;;;6.20;99.90;;;;;;5030839;28;20518;-76
2022/03/26 07:37:23;;;;;;;124.63;56.60;;;6.40;99.90;;;;;;5025282;28;20072;-76
2022/03/26 07:39:49;;;;;;;127.88;55.90;;;6.50;99.90;;;;;;5031547;28;20033;-76
2022/03/26 07:42:14;;;;;;;124.57;57.88;;;6.70;99.90;;;;;;5028370;28;20442;-76
2022/03/26 07:44:40;;;;;;;123.35;57.80;;;6.80;99.90;;;;;;5013789;28;20046;-76
2022/03/26 07:47:06;;;;;;;114.57;55.05;;;7.10;99.90;;;;;;5026324;28;20053;-76
2022/03/26 07:49:32;;;;;;;108.20;54.65;;;7.20;99.90;;;;;;5046618;28;20048;-76
2022/03/26 07:51:57;;;;;;;98.45;49.13;;;7.40;99.90;;;;;;5026831;28;20033;-76
2022/03/26 07:54:23;;;;;;;102.38;52.28;;;7.60;99.90;;;;;;5019359;28;20042;-76
2022/03/26 07:56:49;;;;;;;107.85;51.97;;;7.80;99.90;;;;;;5027850;28;20107;-76
2022/03/26 07:59:14;;;;;;;97.25;48.65;;;8.10;99.90;;;;;;5014407;28;20040;-76
2022/03/26 08:01:40;;;;;;;93.80;47.40;;;8.20;99.90;;;;;;5030450;28;20041;-76
2022/03/26 08:04:05;;;;;;;92.55;48.53;;;8.40;99.90;;;;;;5029858;28;20508;-75
2022/03/26 08:06:31;;;;;;;96.57;50.08;;;8.40;99.90;;;;;;5014931;28;20132;-75
2022/03/26 08:08:57;;;;;;;90.85;47.90;;;8.60;99.90;;;;;;5009970;28;20050;-76
2022/03/26 08:11:22;;;;;;;93.95;48.42;;;8.70;99.90;;;;;;5011963;28;20081;-76
2022/03/26 08:13:48;;;;;;;89.28;46.20;;;8.90;99.90;;;;;;5027735;28;20068;-76
2022/03/26 08:16:14;;;;;;;89.82;46.78;;;9.00;99.90;;;;;;5020271;28;20041;-76
2022/03/26 08:18:40;;;;;;;87.57;46.20;;;9.20;99.90;;;;;;5028498;28;20637;-76
2022/03/26 08:21:06;;;;;;;85.90;44.95;;;9.30;99.90;;;;;;5030073;28;20108;-76
2022/03/26 08:23:32;;;;;;;77.55;41.45;;;9.50;99.90;;;;;;5028855;28;20125;-76
2022/03/26 08:28:42;;;;;;;70.30;38.28;;;9.80;99.90;;;;;;5045574;28;20104;-76
2022/03/26 08:31:10;;;;;;;70.88;37.65;;;9.90;99.90;;;;;;5030193;28;20414;-76
2022/03/26 08:33:36;;;;;;;64.30;34.78;;;10.10;99.90;;;;;;5028979;28;20080;-76
2022/03/26 08:36:02;;;;;;;66.93;35.30;;;10.30;99.90;;;;;;5026366;28;20133;-76
2022/03/26 08:38:28;;;;;;;66.55;36.90;;;10.40;99.90;;;;;;5040252;28;20128;-76
2022/03/26 08:40:53;;;;;;;59.72;34.50;;;10.50;99.90;;;;;;5047990;28;20459;-76
2022/03/26 08:43:20;;;;;;;57.28;30.80;;;10.60;99.90;;;;;;5028264;28;20101;-76
2022/03/26 08:45:46;;;;;;;54.80;31.92;;;10.70;99.90;;;;;;5027794;28;20034;-76
2022/03/26 08:48:12;;;;;;;55.85;33.40;;;10.80;99.90;;;;;;5028981;28;20422;-76
2022/03/26 08:50:37;;;;;;;55.88;32.05;;;11.00;99.90;;;;;;5020105;28;20048;-76
2022/03/26 08:53:03;;;;;;;54.97;32.22;;;11.10;99.90;;;;;;5016774;28;20414;-76
2022/03/26 08:55:29;;;;;;;59.92;33.78;;;11.10;99.90;;;;;;5032676;28;20484;-76
2022/03/26 08:57:57;;;;;;;58.78;34.72;;;11.30;99.90;;;;;;5015771;28;20030;-76
2022/03/26 09:00:23;;;;;;;57.22;32.40;;;11.40;99.90;;;;;;5034266;28;20496;-76
2022/03/26 09:02:48;;;;;;;60.95;35.97;;;11.50;99.90;;;;;;5017705;28;20077;-76
2022/03/26 09:05:15;;;;;;;56.33;32.95;;;11.60;99.90;;;;;;5034474;28;20076;-76
2022/03/26 09:07:41;;;;;;;58.22;35.45;;;11.70;99.90;;;;;;5017513;28;20128;-76
2022/03/26 09:10:07;;;;;;;54.78;30.27;;;11.70;99.90;;;;;;5017784;28;20397;-76
2022/03/26 09:12:34;;;;;;;49.10;31.58;;;11.90;99.90;;;;;;5017915;28;20049;-76
2022/03/26 09:14:59;;;;;;;48.85;29.27;;;12.00;99.90;;;;;;5017154;28;20041;-76
2022/03/26 09:17:25;;;;;;;53.03;31.95;;;12.10;99.90;;;;;;5032669;28;20034;-76
2022/03/26 09:19:51;;;;;;;53.15;31.02;;;12.20;99.90;;;;;;5033933;28;20044;-76
2022/03/26 09:22:16;;;;;;;51.22;30.88;;;12.30;99.90;;;;;;5033850;28;20460;-76
2022/03/26 09:24:42;;;;;;;48.38;30.88;;;12.40;99.90;;;;;;5034075;28;20033;-76
2022/03/26 09:27:09;;;;;;;47.65;29.55;;;12.50;99.90;;;;;;5017708;28;20037;-76
2022/03/26 09:29:34;;;;;;;46.97;29.00;;;12.60;99.90;;;;;;5033669;28;20077;-76
2022/03/26 09:32:00;;;;;;;47.45;29.42;;;12.70;99.90;;;;;;5033537;28;20461;-76
2022/03/26 09:34:26;;;;;;;43.88;28.00;;;12.80;99.90;;;;;;5050072;28;20049;-76
2022/03/26 09:36:53;;;;;;;44.67;27.65;;;12.90;99.90;;;;;;5017270;28;20037;-76
2022/03/26 09:39:19;;;;;;;44.20;28.23;;;13.00;99.90;;;;;;5050095;28;20049;-76
2022/03/26 09:41:46;;;;;;;43.72;26.65;;;13.00;99.90;;;;;;5050738;28;20482;-76
2022/03/26 09:44:12;;;;;;;40.28;24.63;;;13.20;99.90;;;;;;5050034;28;20045;-76
2022/03/26 09:46:38;;;;;;;38.35;25.10;;;13.40;99.90;;;;;;5032020;28;20048;-75
2022/03/26 09:49:03;;;;;;;37.45;24.17;;;13.40;99.90;;;;;;5032313;28;20057;-76
2022/03/26 09:51:29;;;;;;;37.53;25.30;;;13.50;99.90;;;;;;5033550;28;20120;-76
2022/03/26 09:53:56;;;;;;;34.60;22.92;;;13.60;99.90;;;;;;5049855;28;20042;-76
2022/03/26 09:56:23;;;;;;;36.50;22.15;;;13.70;99.90;;;;;;5049605;28;20054;-76
2022/03/26 09:58:52;;;;;;;34.38;20.45;;;13.80;99.90;;;;;;5050268;28;20037;-76
2022/03/26 10:01:19;;;;;;;31.50;21.80;;;13.90;99.90;;;;;;5048519;28;20054;-76
2022/03/26 10:04:20;;;;;;;32.65;20.83;;;14.00;99.90;;;;;;5049598;28;20123;-76
2022/03/26 10:06:48;;;;;;;31.63;20.33;;;14.10;99.10;;;;;;5031879;28;20042;-76
2022/03/26 10:09:33;;;;;;;30.02;20.75;;;14.20;99.70;;;;;;5032893;28;20045;-76
2022/03/26 10:12:16;;;;;;;28.15;18.75;;;14.20;99.80;;;;;;5032968;28;20045;-76
2022/03/26 10:14:47;;;;;;;31.58;20.58;;;14.30;99.00;;;;;;5032769;28;20041;-76
2022/03/26 10:17:16;;;;;;;31.38;19.42;;;14.40;99.30;;;;;;5036208;28;20437;-76
2022/03/26 10:19:49;;;;;;;28.80;19.63;;;14.40;98.90;;;;;;4996625;28;20049;-76
2022/03/26 10:22:28;;;;;;;28.70;19.45;;;14.50;99.30;;;;;;5032585;28;20045;-76
2022/03/26 10:24:56;;;;;;;28.52;19.23;;;14.50;98.70;;;;;;5033081;28;20081;-76
2022/03/26 10:27:22;;;;;;;27.58;16.83;;;14.60;98.90;;;;;;5032215;28;20048;-76
2022/03/26 10:29:53;;;;;;;24.35;15.85;;;14.70;98.00;;;;;;5032388;28;20041;-76
2022/03/26 10:32:41;;;;;;;28.43;16.63;;;14.90;98.70;;;;;;5032980;28;20037;-76
2022/03/26 10:35:11;;;;;;;26.27;15.95;;;14.90;96.70;;;;;;5032388;28;20052;-76
2022/03/26 10:37:55;;;;;;;24.67;14.23;;;15.00;96.10;;;;;;5015998;28;20038;-76
2022/03/26 10:40:23;;;;;;;20.23;13.43;;;15.00;97.00;;;;;;5029870;28;20038;-76
2022/03/26 10:43:00;;;;;;;20.00;12.55;;;15.10;95.80;;;;;;5036790;28;20033;-76
2022/03/26 10:45:27;;;;;;;16.55;11.48;;;15.20;96.50;;;;;;5013406;28;20047;-76
2022/03/26 10:47:55;;;;;;;17.90;10.55;;;15.30;96.30;;;;;;5030015;28;20057;-77
2022/03/26 10:50:21;;;;;;;18.25;11.27;;;15.40;92.60;;;;;;5048785;28;20071;-75
2022/03/26 10:52:46;;;;;;;17.65;12.18;;;15.50;93.70;;;;;;5030699;28;20037;-78
2022/03/26 10:55:14;;;;;;;18.10;10.00;;;15.50;92.80;;;;;;5048778;28;20083;-79
2022/03/26 10:57:41;;;;;;;17.10;10.20;;;15.50;91.90;;;;;;5027212;28;20057;-78
2022/03/26 11:00:08;;;;;;;16.92;11.48;;;15.60;94.40;;;;;;5027957;28;20073;-79
2022/03/26 11:02:34;;;;;;;17.15;11.05;;;15.60;93.20;;;;;;5012870;28;20386;-78
2022/03/26 11:05:00;;;;;;;16.08;11.15;;;15.70;93.60;;;;;;5031891;28;20037;-79
2022/03/26 11:07:27;;;;;;;16.92;11.35;;;15.70;93.30;;;;;;5037287;28;20493;-78
2022/03/26 11:09:55;;;;;;;17.10;10.93;;;15.70;92.30;;;;;;5013892;28;20060;-78
2022/03/26 11:12:21;;;;;;;16.48;11.05;;;15.80;93.40;;;;;;5030746;28;20035;-78
2022/03/26 11:14:48;;;;;;;17.70;10.75;;;15.80;93.00;;;;;;5012495;28;20155;-76
2022/03/26 11:17:31;;;;;;;15.70;9.73;;;15.80;92.90;;;;;;5024531;28;20033;-76
2022/03/26 11:20:12;;;;;;;15.05;10.05;;;15.90;92.10;;;;;;5030119;28;20045;-75
2022/03/26 11:23:15;;;;;;;15.20;9.15;;;15.90;92.80;;;;;;5027030;28;20065;-75
2022/03/26 11:25:55;;;;;;;15.75;9.80;;;15.90;93.90;;;;;;5029946;28;20147;-75
2022/03/26 11:28:58;;;;;;;15.85;10.00;;;16.00;93.00;;;;;;5031915;28;20041;-76
2022/03/26 11:31:35;;;;;;;15.23;9.90;;;16.00;90.70;;;;;;5012222;28;20044;-76
2022/03/26 11:34:05;;;;;;;16.60;9.98;;;16.00;89.80;;;;;;5029255;28;20041;-76
2022/03/26 11:36:32;;;;;;;16.30;10.82;;;15.90;90.60;;;;;;5028779;28;20042;-75
2022/03/26 11:39:15;;;;;;;15.40;10.27;;;15.90;91.20;;;;;;5014507;28;20034;-75
2022/03/26 11:41:42;;;;;;;12.93;9.23;;;15.90;90.00;;;;;;5026670;28;20041;-76
2022/03/26 11:44:08;;;;;;;13.23;9.10;;;16.00;93.50;;;;;;5048024;28;20052;-75
2022/03/26 11:50:41;;;;;;;12.82;7.63;;;16.20;92.60;;;;;;5035742;28;20057;-76
2022/03/26 11:52:33;;;;;;;14.05;8.25;;;16.20;87.80;;;;;;5024298;28;20490;-75
2022/03/26 11:55:14;;;;;;;12.60;7.60;;;16.20;91.30;;;;;;5030916;28;20046;-80
2022/03/26 11:57:40;;;;;;;14.05;8.05;;;16.20;90.40;;;;;;5016072;28;20042;-80
2022/03/26 12:00:15;;;;;;;11.82;7.10;;;16.30;91.10;;;;;;5031308;28;20047;-80
2022/03/26 12:02:53;;;;;;;11.52;7.10;;;16.30;91.60;;;;;;5030519;28;20033;-80
2022/03/26 12:08:32;;;;;;;14.15;6.93;;;16.00;89.90;;;;;;5039804;28;20545;-80
2022/03/26 12:10:58;;;;;;;12.88;6.60;;;15.90;90.70;;;;;;5031223;28;20490;-80
2022/03/26 12:13:23;;;;;;;10.70;6.53;;;15.90;90.40;;;;;;5014203;28;20038;-81
2022/03/26 12:16:03;;;;;;;10.15;6.28;;;15.90;91.10;;;;;;5012298;28;20045;-80
2022/03/26 12:18:35;;;;;;;10.10;6.13;;;15.90;90.60;;;;;;5023076;28;20399;-80
2022/03/26 12:21:22;;;;;;;9.00;5.63;;;16.00;92.70;;;;;;5030768;28;20390;-80
2022/03/26 12:23:48;;;;;;;11.90;6.25;;;16.10;91.30;;;;;;5033894;28;20041;-81
2022/03/26 12:26:14;;;;;;;12.93;5.75;;;16.10;91.40;;;;;;5033710;28;20103;-76
2022/03/26 12:28:43;;;;;;;8.52;5.00;;;16.10;89.60;;;;;;5034902;28;20040;-75
2022/03/26 12:31:10;;;;;;;17.73;6.28;;;16.10;90.50;;;;;;5016427;28;20120;-76
2022/03/26 12:33:46;;;;;;;11.90;5.22;;;16.10;91.40;;;;;;5013558;28;20037;-75
2022/03/26 12:36:14;;;;;;;10.00;5.35;;;16.00;87.60;;;;;;5034649;28;20046;-76
2022/03/26 12:38:40;;;;;;;10.05;5.20;;;16.10;89.60;;;;;;5033765;28;20501;-76
2022/03/26 12:41:07;;;;;;;9.75;4.93;;;16.20;84.90;;;;;;5034467;28;20069;-75
2022/03/26 12:43:34;;;;;;;9.27;5.00;;;16.10;88.30;;;;;;5033632;28;20079;-75